sensor_id;sensor_type;location;lat;lon;timestamp;pressure;altitude;pressure_sealevel;temperature;humidity
35758;BME280;21879;50.110;18.900;2023-03-04T00:06:36;98787.78;;;1.24;68.06
35758;BME280;21879;50.110;18.900;2023-03-04T00:17:01;98777.39;;;1.32;68.13
35758;BME280;21879;50.110;18.900;2023-03-04T00:27:27;98762.41;;;1.24;68.15
35758;BME280;21879;50.110;18.900;2023-03-04T00:37:52;98749.92;;;1.18;68.23
35758;BME280;21879;50.110;18.900;2023-03-04T00:48:17;98737.94;;;1.18;68.15
35758;BME280;21879;50.110;18.900;2023-03-04T00:58:41;98727.45;;;1.16;68.16
35758;BME280;21879;50.110;18.900;2023-03-04T01:09:06;98708.42;;;1.22;68.63
35758;BME280;21879;50.110;18.900;2023-03-04T01:19:31;98690.64;;;1.17;68.07
35758;BME280;21879;50.110;18.900;2023-03-04T01:29:56;98673.33;;;1.10;68.48
35758;BME280;21879;50.110;18.900;2023-03-04T01:40:22;98646.42;;;1.03;68.67
35758;BME280;21879;50.110;18.900;2023-03-04T01:50:47;98643.98;;;1.01;68.59
35758;BME280;21879;50.110;18.900;2023-03-04T02:01:12;98634.65;;;0.98;68.75
35758;BME280;21879;50.110;18.900;2023-03-04T02:11:38;98610.69;;;0.99;68.77
35758;BME280;21879;50.110;18.900;2023-03-04T02:22:03;98603.16;;;1.05;68.51
35758;BME280;21879;50.110;18.900;2023-03-04T02:32:27;98587.92;;;1.12;68.39
35758;BME280;21879;50.110;18.900;2023-03-04T02:42:52;98579.83;;;1.23;68.28
35758;BME280;21879;50.110;18.900;2023-03-04T02:53:16;98569.10;;;1.33;68.03
35758;BME280;21879;50.110;18.900;2023-03-04T03:03:40;98555.42;;;1.33;68.04
35758;BME280;21879;50.110;18.900;2023-03-04T03:14:05;98534.42;;;1.44;67.77
35758;BME280;21879;50.110;18.900;2023-03-04T03:24:29;98532.33;;;1.49;67.52
35758;BME280;21879;50.110;18.900;2023-03-04T03:34:53;98527.06;;;1.66;67.64
35758;BME280;21879;50.110;18.900;2023-03-04T03:45:18;98530.67;;;1.67;67.32
35758;BME280;21879;50.110;18.900;2023-03-04T03:55:43;98528.55;;;1.56;67.25
35758;BME280;21879;50.110;18.900;2023-03-04T04:06:08;98524.69;;;1.45;67.46
35758;BME280;21879;50.110;18.900;2023-03-04T04:16:34;98521.55;;;1.29;67.13
35758;BME280;21879;50.110;18.900;2023-03-04T04:26:59;98520.25;;;1.24;67.20
35758;BME280;21879;50.110;18.900;2023-03-04T04:37:24;98525.34;;;1.22;67.32
35758;BME280;21879;50.110;18.900;2023-03-04T04:47:48;98525.70;;;1.24;66.87
35758;BME280;21879;50.110;18.900;2023-03-04T04:58:12;98518.79;;;1.27;67.15
35758;BME280;21879;50.110;18.900;2023-03-04T05:08:36;98519.21;;;1.17;66.86
35758;BME280;21879;50.110;18.900;2023-03-04T05:19:01;98515.27;;;1.03;66.94
35758;BME280;21879;50.110;18.900;2023-03-04T05:29:25;98517.67;;;0.89;67.00
35758;BME280;21879;50.110;18.900;2023-03-04T05:39:49;98524.54;;;0.90;67.18
35758;BME280;21879;50.110;18.900;2023-03-04T05:50:14;98525.16;;;1.01;67.57
35758;BME280;21879;50.110;18.900;2023-03-04T06:00:38;98512.70;;;1.09;67.36
35758;BME280;21879;50.110;18.900;2023-03-04T06:11:02;98515.91;;;1.15;67.30
35758;BME280;21879;50.110;18.900;2023-03-04T06:21:28;98521.39;;;1.22;67.15
35758;BME280;21879;50.110;18.900;2023-03-04T06:31:52;98518.87;;;1.24;67.06
35758;BME280;21879;50.110;18.900;2023-03-04T06:42:16;98520.94;;;1.25;66.94
35758;BME280;21879;50.110;18.900;2023-03-04T06:52:41;98524.09;;;1.06;66.81
35758;BME280;21879;50.110;18.900;2023-03-04T07:03:05;98530.33;;;0.90;67.18
35758;BME280;21879;50.110;18.900;2023-03-04T07:13:29;98530.88;;;0.91;67.26
35758;BME280;21879;50.110;18.900;2023-03-04T07:23:54;98547.34;;;0.91;67.31
35758;BME280;21879;50.110;18.900;2023-03-04T07:34:19;98553.13;;;0.91;67.21
35758;BME280;21879;50.110;18.900;2023-03-04T07:44:44;98555.95;;;0.94;67.23
35758;BME280;21879;50.110;18.900;2023-03-04T07:55:10;98550.02;;;0.96;67.08
35758;BME280;21879;50.110;18.900;2023-03-04T08:05:38;98552.30;;;0.92;67.04
35758;BME280;21879;50.110;18.900;2023-03-04T08:16:04;98559.98;;;0.90;67.09
35758;BME280;21879;50.110;18.900;2023-03-04T08:26:31;98572.14;;;0.90;67.26
35758;BME280;21879;50.110;18.900;2023-03-04T08:36:57;98577.95;;;0.90;66.66
35758;BME280;21879;50.110;18.900;2023-03-04T08:47:22;98579.42;;;0.88;66.74
35758;BME280;21879;50.110;18.900;2023-03-04T08:57:46;98574.38;;;0.91;66.87
35758;BME280;21879;50.110;18.900;2023-03-04T09:08:11;98570.44;;;1.05;66.70
35758;BME280;21879;50.110;18.900;2023-03-04T09:18:36;98564.06;;;1.16;66.51
35758;BME280;21879;50.110;18.900;2023-03-04T09:29:01;98561.68;;;1.24;66.09
35758;BME280;21879;50.110;18.900;2023-03-04T09:39:26;98560.27;;;1.28;65.93
35758;BME280;21879;50.110;18.900;2023-03-04T09:49:55;98556.25;;;1.32;66.13
35758;BME280;21879;50.110;18.900;2023-03-04T10:00:22;98546.82;;;1.32;65.83
35758;BME280;21879;50.110;18.900;2023-03-04T10:10:48;98547.05;;;1.34;66.05
35758;BME280;21879;50.110;18.900;2023-03-04T10:21:19;98531.64;;;1.34;65.91
35758;BME280;21879;50.110;18.900;2023-03-04T10:31:46;98528.83;;;1.25;66.16
35758;BME280;21879;50.110;18.900;2023-03-04T10:42:27;98520.25;;;1.24;66.55
35758;BME280;21879;50.110;18.900;2023-03-04T10:52:53;98503.60;;;1.23;66.53
35758;BME280;21879;50.110;18.900;2023-03-04T11:03:23;98492.68;;;1.17;67.02
35758;BME280;21879;50.110;18.900;2023-03-04T11:13:57;98480.97;;;1.22;67.34
35758;BME280;21879;50.110;18.900;2023-03-04T11:24:26;98465.55;;;1.29;67.35
35758;BME280;21879;50.110;18.900;2023-03-04T11:34:57;98465.81;;;1.33;67.77
35758;BME280;21879;50.110;18.900;2023-03-04T11:45:30;98450.59;;;1.40;67.46
35758;BME280;21879;50.110;18.900;2023-03-04T11:56:08;98437.31;;;1.45;67.51
35758;BME280;21879;50.110;18.900;2023-03-04T12:06:43;98426.27;;;1.49;67.35
35758;BME280;21879;50.110;18.900;2023-03-04T12:17:34;98420.30;;;1.58;67.32
35758;BME280;21879;50.110;18.900;2023-03-04T12:28:18;98414.42;;;1.72;67.13
35758;BME280;21879;50.110;18.900;2023-03-04T12:39:02;98409.35;;;1.84;67.01
35758;BME280;21879;50.110;18.900;2023-03-04T12:49:50;98399.86;;;1.98;66.76
35758;BME280;21879;50.110;18.900;2023-03-04T13:00:23;98388.67;;;2.04;66.44
35758;BME280;21879;50.110;18.900;2023-03-04T13:11:00;98377.77;;;2.09;66.47
35758;BME280;21879;50.110;18.900;2023-03-04T13:21:27;98360.81;;;2.19;66.23
35758;BME280;21879;50.110;18.900;2023-03-04T13:32:00;98360.64;;;2.28;66.14
35758;BME280;21879;50.110;18.900;2023-03-04T13:42:41;98360.29;;;2.38;66.09
35758;BME280;21879;50.110;18.900;2023-03-04T13:53:29;98351.56;;;2.50;65.81
35758;BME280;21879;50.110;18.900;2023-03-04T14:03:55;98346.36;;;2.46;65.24
35758;BME280;21879;50.110;18.900;2023-03-04T14:14:21;98343.32;;;2.49;64.97
35758;BME280;21879;50.110;18.900;2023-03-04T14:24:59;98341.30;;;2.52;64.56
35758;BME280;21879;50.110;18.900;2023-03-04T14:35:26;98334.90;;;2.58;64.36
35758;BME280;21879;50.110;18.900;2023-03-04T14:45:53;98336.29;;;2.60;63.75
35758;BME280;21879;50.110;18.900;2023-03-04T14:56:27;98342.33;;;2.62;63.75
35758;BME280;21879;50.110;18.900;2023-03-04T15:06:53;98339.73;;;2.61;63.63
35758;BME280;21879;50.110;18.900;2023-03-04T15:17:30;98335.00;;;2.54;63.43
35758;BME280;21879;50.110;18.900;2023-03-04T15:28:00;98321.94;;;2.53;63.47
35758;BME280;21879;50.110;18.900;2023-03-04T15:38:27;98317.29;;;2.52;63.18
35758;BME280;21879;50.110;18.900;2023-03-04T15:48:53;98317.41;;;2.49;63.41
35758;BME280;21879;50.110;18.900;2023-03-04T15:59:18;98305.30;;;2.43;63.15
35758;BME280;21879;50.110;18.900;2023-03-04T16:09:43;98304.88;;;2.39;63.18
35758;BME280;21879;50.110;18.900;2023-03-04T16:20:09;98301.04;;;2.34;63.31
35758;BME280;21879;50.110;18.900;2023-03-04T16:30:35;98304.52;;;2.37;63.37
35758;BME280;21879;50.110;18.900;2023-03-04T16:41:00;98303.43;;;2.34;63.51
35758;BME280;21879;50.110;18.900;2023-03-04T16:51:25;98312.83;;;2.32;63.35
35758;BME280;21879;50.110;18.900;2023-03-04T17:01:52;98319.77;;;2.37;63.71
35758;BME280;21879;50.110;18.900;2023-03-04T17:12:17;98324.59;;;2.38;63.27
35758;BME280;21879;50.110;18.900;2023-03-04T17:22:41;98321.96;;;2.44;63.53
35758;BME280;21879;50.110;18.900;2023-03-04T17:33:06;98317.05;;;2.38;63.48
35758;BME280;21879;50.110;18.900;2023-03-04T17:43:31;98316.55;;;2.39;63.79
35758;BME280;21879;50.110;18.900;2023-03-04T17:53:56;98324.63;;;2.39;63.65
35758;BME280;21879;50.110;18.900;2023-03-04T18:04:22;98331.99;;;2.49;63.96
35758;BME280;21879;50.110;18.900;2023-03-04T18:14:47;98331.20;;;2.53;63.91
35758;BME280;21879;50.110;18.900;2023-03-04T18:25:12;98329.81;;;2.52;64.07
35758;BME280;21879;50.110;18.900;2023-03-04T18:35:37;98324.86;;;2.64;64.35
35758;BME280;21879;50.110;18.900;2023-03-04T18:46:03;98330.67;;;2.97;64.27
35758;BME280;21879;50.110;18.900;2023-03-04T18:56:31;98324.85;;;3.22;64.35
35758;BME280;21879;50.110;18.900;2023-03-04T19:07:00;98325.47;;;3.57;64.01
35758;BME280;21879;50.110;18.900;2023-03-04T19:17:25;98329.73;;;3.54;63.10
35758;BME280;21879;50.110;18.900;2023-03-04T19:27:55;98331.67;;;3.31;63.19
35758;BME280;21879;50.110;18.900;2023-03-04T19:38:20;98328.45;;;3.21;63.12
35758;BME280;21879;50.110;18.900;2023-03-04T19:48:45;98332.23;;;3.21;63.90
35758;BME280;21879;50.110;18.900;2023-03-04T19:59:12;98334.55;;;3.27;63.86
35758;BME280;21879;50.110;18.900;2023-03-04T20:09:36;98338.76;;;3.35;64.04
35758;BME280;21879;50.110;18.900;2023-03-04T20:20:02;98339.79;;;3.46;64.53
35758;BME280;21879;50.110;18.900;2023-03-04T20:30:26;98339.23;;;3.44;65.01
35758;BME280;21879;50.110;18.900;2023-03-04T20:40:50;98339.58;;;3.44;65.42
35758;BME280;21879;50.110;18.900;2023-03-04T20:51:15;98327.49;;;3.53;66.04
35758;BME280;21879;50.110;18.900;2023-03-04T21:01:42;98319.55;;;3.50;66.07
35758;BME280;21879;50.110;18.900;2023-03-04T21:12:08;98319.00;;;3.61;66.26
35758;BME280;21879;50.110;18.900;2023-03-04T21:22:32;98316.04;;;3.58;66.40
35758;BME280;21879;50.110;18.900;2023-03-04T21:32:57;98308.09;;;3.70;66.67
35758;BME280;21879;50.110;18.900;2023-03-04T21:43:23;98304.49;;;3.72;66.49
35758;BME280;21879;50.110;18.900;2023-03-04T21:53:48;98298.81;;;3.56;66.46
35758;BME280;21879;50.110;18.900;2023-03-04T22:04:13;98295.95;;;3.45;66.77
35758;BME280;21879;50.110;18.900;2023-03-04T22:14:38;98288.84;;;3.41;67.15
35758;BME280;21879;50.110;18.900;2023-03-04T22:25:03;98306.06;;;3.31;66.43
35758;BME280;21879;50.110;18.900;2023-03-04T22:35:27;98307.35;;;2.87;66.21
35758;BME280;21879;50.110;18.900;2023-03-04T22:45:52;98314.38;;;2.75;66.61
35758;BME280;21879;50.110;18.900;2023-03-04T22:56:18;98316.64;;;2.88;67.08
35758;BME280;21879;50.110;18.900;2023-03-04T23:06:43;98320.30;;;3.03;66.88
35758;BME280;21879;50.110;18.900;2023-03-04T23:17:08;98324.83;;;3.33;67.04
35758;BME280;21879;50.110;18.900;2023-03-04T23:27:33;98330.06;;;3.52;66.77
35758;BME280;21879;50.110;18.900;2023-03-04T23:37:58;98332.06;;;3.62;66.50
35758;BME280;21879;50.110;18.900;2023-03-04T23:48:23;98337.86;;;3.72;66.31
35758;BME280;21879;50.110;18.900;2023-03-04T23:58:48;98342.52;;;3.87;66.12
